Time;durP1;ratioP1;P1;durP2;ratioP2;P2;SDS_P1;SDS_P2;PMS_P1;PMS_P2;Temp;Humidity;BMP_temperature;BMP_pressure;BME280_temperature;BME280_humidity;BME280_pressure;Samples;Min_cycle;Max_cycle;Signal;HPM_P1;HPM_P2
2022/01/24 00:00:58;;;;;;;207.45;81.93;;;;;;;0.55;100.00;101419.16;5115484;28;20414;-74
2022/01/24 00:03:43;;;;;;;194.52;84.15;;;;;;;0.42;100.00;101412.59;5101131;28;20048;-74
2022/01/24 00:06:27;;;;;;;188.32;79.18;;;;;;;0.38;100.00;101429.66;5116220;28;20051;-74
2022/01/24 00:09:12;;;;;;;203.68;79.88;;;;;;;0.39;100.00;101415.97;5116411;28;20047;-74
2022/01/24 00:17:38;;;;;;;184.82;76.43;;;;;;;0.46;100.00;101422.25;5120349;28;20035;-75
2022/01/24 00:29:19;;;;;;;197.32;81.95;;;;;;;0.37;100.00;101419.28;5120029;28;20036;-74
2022/01/24 00:32:04;;;;;;;202.10;82.43;;;;;;;0.29;100.00;101407.75;5119986;28;20112;-75
2022/01/24 00:34:49;;;;;;;194.73;83.50;;;;;;;0.32;100.00;101411.34;5119129;28;20039;-74
2022/01/24 00:37:34;;;;;;;200.48;83.32;;;;;;;0.29;100.00;101405.19;5119170;28;20035;-74
2022/01/24 00:40:18;;;;;;;200.50;83.55;;;;;;;0.25;100.00;101405.88;5119762;28;20044;-74
2022/01/24 00:43:07;;;;;;;205.90;88.25;;;;;;;0.16;100.00;101416.66;5104567;28;20055;-74
2022/01/24 00:49:10;;;;;;;204.27;82.70;;;;;;;0.21;100.00;101408.31;5118909;28;20383;-74
2022/01/24 00:54:51;;;;;;;188.77;82.93;;;;;;;0.27;100.00;101427.47;5119440;28;20039;-74
2022/01/24 00:57:36;;;;;;;189.13;79.97;;;;;;;0.22;100.00;101416.94;5119194;28;20059;-74
2022/01/24 01:00:21;;;;;;;192.23;79.15;;;;;;;0.25;100.00;101423.91;5118811;28;20353;-74
2022/01/24 01:03:05;;;;;;;189.50;81.07;;;;;;;0.11;100.00;101406.19;5118768;28;20047;-74
2022/01/24 01:06:08;;;;;;;184.98;78.68;;;;;;;0.23;100.00;101435.06;5118673;28;20047;-74
2022/01/24 01:18:17;;;;;;;176.98;76.82;;;;;;;0.19;100.00;101434.84;5119307;28;20437;-74
2022/01/24 01:21:12;;;;;;;178.02;75.63;;;;;;;0.17;100.00;101424.47;5118376;28;20366;-74
2022/01/24 01:23:58;;;;;;;186.40;78.22;;;;;;;0.16;100.00;101424.41;5118956;28;20044;-74
2022/01/24 01:26:52;;;;;;;176.32;74.97;;;;;;;0.15;100.00;101414.91;5118252;28;20047;-74
2022/01/24 01:29:51;;;;;;;;;;;;;;;0.09;100.00;101410.38;5119337;28;20111;-74
2022/01/24 01:33:02;;;;;;;167.63;71.35;;;;;;;0.06;100.00;101404.22;5103795;28;19920;-74
2022/01/24 01:39:03;;;;;;;127.97;57.13;;;;;;;0.04;100.00;101411.00;5118824;28;20422;-74
2022/01/24 01:56:48;;;;;;;117.38;50.13;;;;;;;0.07;100.00;101417.19;5118578;28;20047;-75
2022/01/24 01:59:33;;;;;;;123.47;52.17;;;;;;;-0.01;100.00;101409.09;5117589;28;20070;-74
2022/01/24 02:02:17;;;;;;;121.53;51.25;;;;;;;0.01;100.00;101410.88;5117629;28;20448;-74
2022/01/24 02:05:02;;;;;;;122.82;50.58;;;;;;;0.04;100.00;101416.16;5118212;28;20043;-74
2022/01/24 02:07:48;;;;;;;145.32;53.10;;;;;;;0.07;100.00;101418.88;5117424;28;20335;-74
2022/01/24 02:10:35;;;;;;;144.77;58.90;;;;;;;0.10;100.00;101427.63;5118199;28;20043;-75
2022/01/24 02:13:22;;;;;;;135.32;56.92;;;;;;;0.14;100.00;101437.22;5117308;28;20086;-75
2022/01/24 02:16:24;;;;;;;130.25;55.17;;;;;;;0.14;100.00;101429.50;5117296;28;20063;-74
2022/01/24 02:19:22;;;;;;;120.38;53.28;;;;;;;0.11;100.00;101426.78;5117974;28;20044;-74
2022/01/24 02:22:39;;;;;;;133.88;54.05;;;;;;;-0.02;100.00;101422.81;5117852;28;20430;-75
2022/01/24 02:25:24;;;;;;;123.32;53.97;;;;;;;0.13;100.00;101427.75;5117852;28;20035;-75
2022/01/24 02:28:11;;;;;;;135.90;57.90;;;;;;;0.11;100.00;101420.75;5117743;28;20353;-75
2022/01/24 02:33:44;;;;;;;137.32;59.03;;;;;;;0.10;100.00;101429.28;5116845;28;20051;-75
2022/01/24 02:36:28;;;;;;;132.25;56.60;;;;;;;-0.02;100.00;101416.78;5116801;28;20346;-75
2022/01/24 02:48:30;;;;;;;129.65;57.05;;;;;;;-0.12;100.00;101427.50;5117393;28;20110;-74
2022/01/24 02:54:31;;;;;;;122.88;51.88;;;;;;;-0.10;100.00;101443.88;5117200;28;20058;-75
2022/01/24 02:57:16;;;;;;;110.88;51.25;;;;;;;-0.14;100.00;101431.69;5116969;28;20081;-75
2022/01/24 03:00:01;;;;;;;123.28;50.85;;;;;;;-0.14;100.00;101427.41;5116563;28;20032;-75
2022/01/24 03:02:45;;;;;;;115.72;50.83;;;;;;;-0.15;100.00;101422.22;5116350;28;20039;-75
2022/01/24 03:05:31;;;;;;;119.18;50.97;;;;;;;-0.14;100.00;101427.41;5102066;28;20459;-75
2022/01/24 03:08:15;;;;;;;126.70;51.67;;;;;;;-0.16;100.00;101423.00;5117068;28;20035;-75
2022/01/24 03:11:00;;;;;;;112.80;48.35;;;;;;;-0.16;100.00;101436.78;5087625;28;20055;-75
2022/01/24 03:13:44;;;;;;;106.60;47.20;;;;;;;-0.19;100.00;101433.19;5116145;28;20039;-75
2022/01/24 03:16:29;;;;;;;112.75;46.15;;;;;;;-0.24;100.00;101432.97;5116983;28;20039;-75
2022/01/24 03:19:14;;;;;;;112.90;47.50;;;;;;;-0.20;100.00;101431.41;5116128;28;20047;-75
2022/01/24 03:21:58;;;;;;;115.20;49.78;;;;;;;-0.23;100.00;101427.00;5116069;28;20430;-75
2022/01/24 03:24:45;;;;;;;119.07;49.72;;;;;;;-0.31;100.00;101424.09;5115978;28;20043;-75
2022/01/24 03:27:29;;;;;;;123.57;49.22;;;;;;;-0.27;100.00;101433.72;5101640;28;20040;-74
2022/01/24 03:30:13;;;;;;;105.18;45.60;;;;;;;-0.36;100.00;101416.97;5101746;28;20040;-75
2022/01/24 03:32:58;;;;;;;107.95;47.00;;;;;;;-0.27;100.00;101436.28;5115884;28;20097;-74
2022/01/24 03:35:43;;;;;;;104.88;46.83;;;;;;;-0.30;100.00;101430.13;5116458;28;20089;-75
2022/01/24 03:38:27;;;;;;;92.65;40.88;;;;;;;-0.29;100.00;101435.38;5116597;28;20112;-74
2022/01/24 03:41:13;;;;;;;92.47;40.40;;;;;;;-0.24;100.00;101441.59;5116564;28;20186;-75
2022/01/24 03:44:02;;;;;;;80.97;36.85;;;;;;;-0.24;100.00;101428.72;5115669;28;20126;-75
2022/01/24 03:49:48;;;;;;;79.88;36.45;;;;;;;-0.26;100.00;101429.44;5116170;28;20046;-74
2022/01/24 03:52:32;;;;;;;106.45;47.15;;;;;;;-0.26;100.00;101437.16;5116453;28;20044;-74
2022/01/24 03:55:17;;;;;;;106.70;45.58;;;;;;;-0.27;100.00;101435.41;5100990;28;20334;-75
2022/01/24 03:58:02;;;;;;;98.80;46.38;;;;;;;-0.30;100.00;101438.72;5116200;28;20048;-75
2022/01/24 04:00:46;;;;;;;120.25;51.13;;;;;;;-0.32;100.00;101432.66;5101238;28;20039;-75
2022/01/24 04:03:31;;;;;;;130.60;50.42;;;;;;;-0.31;100.00;101444.69;5115501;28;20100;-75
2022/01/24 04:06:15;;;;;;;209.35;66.13;;;;;;;-0.32;100.00;101439.50;5115724;28;20039;-74
2022/01/24 04:09:00;;;;;;;458.05;135.90;;;;;;;-0.34;100.00;101438.53;5115757;28;20043;-75
2022/01/24 04:11:44;;;;;;;677.90;224.25;;;;;;;-0.34;100.00;101433.38;5116102;28;20051;-74
2022/01/24 04:17:25;;;;;;;320.17;109.00;;;;;;;-0.31;100.00;101447.28;5116278;28;20052;-74
2022/01/24 04:23:18;;;;;;;351.98;120.32;;;;;;;-0.31;100.00;101451.56;5116388;28;20077;-75
2022/01/24 04:26:03;;;;;;;345.02;120.00;;;;;;;-0.33;100.00;101445.44;5115953;28;20051;-74
2022/01/24 04:28:47;;;;;;;343.55;115.78;;;;;;;-0.31;100.00;101446.41;5115941;28;20040;-74
2022/01/24 04:31:32;;;;;;;351.02;110.30;;;;;;;-0.27;100.00;101444.00;5115287;28;20040;-75
2022/01/24 04:34:17;;;;;;;288.20;93.57;;;;;;;-0.29;100.00;101434.50;5100781;28;20111;-75
2022/01/24 04:37:01;;;;;;;280.80;83.63;;;;;;;-0.32;100.00;101427.50;5100880;28;20353;-74
2022/01/24 04:39:47;;;;;;;224.23;76.70;;;;;;;-0.30;100.00;101436.16;5115852;28;20035;-75
2022/01/24 04:42:46;;;;;;;182.75;64.25;;;;;;;-0.29;100.00;101437.06;5101035;28;20040;-75
2022/01/24 04:45:59;;;;;;;197.75;62.95;;;;;;;-0.35;100.00;101436.78;5115181;28;20114;-75
2022/01/24 04:51:54;;;;;;;104.10;44.55;;;;;;;-0.46;100.00;101441.44;5115048;28;20044;-75
2022/01/24 04:54:42;;;;;;;90.25;38.80;;;;;;;-0.57;100.00;101440.94;5114950;28;20043;-75
2022/01/24 04:57:28;;;;;;;77.90;33.65;;;;;;;-0.64;100.00;101446.63;5114805;28;20051;-75
2022/01/24 05:00:13;;;;;;;70.60;32.22;;;;;;;-0.75;100.00;101433.28;5115851;28;20039;-75
2022/01/24 05:02:57;;;;;;;77.18;34.70;;;;;;;-0.84;100.00;101435.41;5119118;28;20111;-74
2022/01/24 05:05:42;;;;;;;98.15;43.33;;;;;;;-0.84;100.00;101457.69;5119407;28;20116;-74
2022/01/24 05:08:27;;;;;;;105.03;46.15;;;;;;;-0.89;100.00;101454.00;5118662;28;20044;-75
2022/01/24 05:11:17;;;;;;;134.90;58.30;;;;;;;-0.96;100.00;101453.72;5104213;28;20418;-75
2022/01/24 05:26:28;;;;;;;151.85;62.90;;;;;;;-1.00;100.00;101474.97;5100996;28;20143;-75
2022/01/24 05:29:12;;;;;;;178.77;76.63;;;;;;;-0.91;100.00;101484.81;5118941;28;20036;-75
2022/01/24 05:31:57;;;;;;;188.23;84.85;;;;;;;-0.95;100.00;101473.47;5118101;28;20044;-75
2022/01/24 05:34:41;;;;;;;183.13;80.53;;;;;;;-0.89;100.00;101472.03;5118808;28;20046;-75
2022/01/24 05:37:25;;;;;;;191.90;75.20;;;;;;;-0.88;100.00;101487.50;5118930;28;20425;-74
2022/01/24 05:40:11;;;;;;;176.57;71.05;;;;;;;-0.86;100.00;101479.88;5118721;28;20047;-75
2022/01/24 05:42:55;;;;;;;166.85;67.53;;;;;;;-0.88;100.00;101473.78;5118610;28;20043;-75
2022/01/24 05:45:41;;;;;;;153.93;62.40;;;;;;;-1.01;100.00;101464.59;5117883;28;20044;-74
2022/01/24 05:48:25;;;;;;;141.25;58.20;;;;;;;-0.92;100.00;101466.72;5117974;28;20035;-74
2022/01/24 05:51:09;;;;;;;105.05;46.40;;;;;;;-0.91;100.00;101474.53;5115854;28;20039;-75
2022/01/24 05:53:54;;;;;;;92.28;41.08;;;;;;;-0.88;100.00;101471.19;5114869;28;20070;-79
2022/01/24 05:56:39;;;;;;;81.70;37.40;;;;;;;-0.86;100.00;101479.88;5095407;28;20036;-79
2022/01/24 05:59:23;;;;;;;79.28;33.85;;;;;;;-0.90;100.00;101468.56;5114988;27;20063;-79
2022/01/24 06:02:07;;;;;;;70.50;33.15;;;;;;;-0.88;100.00;101466.94;5095301;28;20036;-78
2022/01/24 06:04:52;;;;;;;75.32;34.53;;;;;;;-0.81;100.00;101475.84;5095221;28;20119;-79
2022/01/24 06:07:37;;;;;;;75.63;34.05;;;;;;;-0.79;100.00;101474.22;5095932;28;20063;-78
2022/01/24 06:10:21;;;;;;;66.65;32.20;;;;;;;-0.78;100.00;101465.69;5095990;28;20040;-79
2022/01/24 06:13:06;;;;;;;79.28;33.80;;;;;;;-0.78;100.00;101463.09;5095596;28;20040;-79
2022/01/24 06:15:51;;;;;;;91.22;37.55;;;;;;;-0.77;100.00;101464.88;5095040;28;20075;-79
2022/01/24 06:18:36;;;;;;;88.32;37.70;;;;;;;-0.72;100.00;101469.41;5095692;28;20434;-78
2022/01/24 06:21:20;;;;;;;88.15;36.97;;;;;;;-0.66;100.00;101467.94;5095696;28;20044;-79
2022/01/24 06:24:05;;;;;;;81.85;36.45;;;;;;;-0.62;100.00;101480.16;5095644;28;20044;-79
2022/01/24 06:26:49;;;;;;;91.75;40.70;;;;;;;-0.59;100.00;101476.03;5096220;28;20039;-79
2022/01/24 06:29:34;;;;;;;86.63;37.95;;;;;;;-0.57;100.00;101471.84;5096450;28;20496;-79
2022/01/24 06:32:18;;;;;;;81.95;36.70;;;;;;;-0.52;100.00;101478.09;5082425;28;20044;-79
2022/01/24 06:35:02;;;;;;;88.95;37.97;;;;;;;-0.57;100.00;101465.81;5096645;28;20043;-79
2022/01/24 06:37:47;;;;;;;88.43;37.30;;;;;;;-0.51;100.00;101482.41;5096496;28;20350;-79
2022/01/24 06:40:32;;;;;;;92.82;39.05;;;;;;;-0.60;100.00;101484.56;5097260;28;20040;-79
2022/01/24 06:43:16;;;;;;;92.22;39.60;;;;;;;-0.63;100.00;101478.41;5097148;28;20385;-79
2022/01/24 06:46:01;;;;;;;88.03;37.72;;;;;;;-0.51;100.00;101482.41;5096339;28;20078;-79
2022/01/24 06:48:45;;;;;;;84.53;36.67;;;;;;;-0.47;100.00;101486.00;5096826;28;20115;-79
2022/01/24 06:51:29;;;;;;;85.03;35.33;;;;;;;-0.39;100.00;101486.34;5081886;28;20056;-78
2022/01/24 06:54:13;;;;;;;86.22;37.70;;;;;;;-0.27;100.00;101498.09;5097052;28;20048;-79
2022/01/24 06:56:58;;;;;;;79.78;35.42;;;;;;;-0.22;100.00;101493.19;5095864;28;20040;-79
2022/01/24 06:59:44;;;;;;;81.45;36.08;;;;;;;-0.19;100.00;101495.00;5096029;28;20126;-79
2022/01/24 07:02:29;;;;;;;79.80;34.78;;;;;;;-0.17;100.00;101494.25;5096761;28;20559;-79
2022/01/24 07:05:13;;;;;;;79.35;35.15;;;;;;;-0.13;100.00;101495.25;5096126;28;20047;-79
2022/01/24 07:07:59;;;;;;;73.90;34.22;;;;;;;-0.07;100.00;101492.97;5095898;28;20040;-79
2022/01/24 07:10:44;;;;;;;75.05;35.13;;;;;;;-0.05;100.00;101489.66;5096661;28;20119;-79
2022/01/24 07:13:28;;;;;;;78.07;40.10;;;;;;;0.01;100.00;101490.75;5081655;28;20044;-79
2022/01/24 07:16:13;;;;;;;80.28;39.10;;;;;;;0.09;100.00;101502.25;5095584;28;20101;-79
2022/01/24 07:18:58;;;;;;;79.22;35.17;;;;;;;0.11;100.00;101501.53;5094529;28;20040;-79
2022/01/24 07:21:42;;;;;;;66.28;31.00;;;;;;;0.23;100.00;101514.06;5094454;28;20066;-79
2022/01/24 07:24:27;;;;;;;67.70;34.28;;;;;;;0.35;100.00;101516.28;5093996;28;20044;-79
2022/01/24 07:27:11;;;;;;;72.25;34.15;;;;;;;0.34;100.00;101499.94;5093532;28;20068;-80
2022/01/24 07:29:58;;;;;;;92.97;43.75;;;;;;;0.49;100.00;101517.78;5094334;28;20043;-79
2022/01/24 07:32:42;;;;;;;72.57;35.95;;;;;;;0.59;100.00;101524.22;5093510;28;20044;-80
2022/01/24 07:35:27;;;;;;;69.97;31.77;;;;;;;0.59;100.00;101517.34;5080040;28;20036;-79
2022/01/24 07:38:12;;;;;;;70.53;29.75;;;;;;;0.77;100.00;101524.09;5095296;28;20063;-79
2022/01/24 07:40:59;;;;;;;62.60;30.48;;;;;;;0.89;100.00;101529.78;5098440;27;20060;-80
2022/01/24 07:43:43;;;;;;;61.53;30.00;;;;;;;1.01;100.00;101534.53;5078991;28;20079;-80
2022/01/24 07:46:28;;;;;;;71.85;34.00;;;;;;;1.07;100.00;101537.38;5093934;28;20040;-79
2022/01/24 07:49:13;;;;;;;62.10;28.83;;;;;;;1.16;100.00;101541.22;5093165;28;20040;-79
2022/01/24 07:51:58;;;;;;;60.25;28.33;;;;;;;1.28;100.00;101543.41;5093767;28;20043;-79
2022/01/24 07:54:43;;;;;;;64.93;30.92;;;;;;;1.25;100.00;101529.50;5094301;28;20058;-79
2022/01/24 07:57:27;;;;;;;70.70;32.67;;;;;;;1.28;100.00;101525.34;5095421;28;20044;-79
2022/01/24 08:00:12;;;;;;;71.22;34.38;;;;;;;1.38;100.00;101527.47;5095612;28;20040;-79
2022/01/24 08:02:57;;;;;;;64.18;30.65;;;;;;;1.52;100.00;101537.44;5094754;28;20036;-79
2022/01/24 08:05:42;;;;;;;56.20;25.45;;;;;;;1.39;100.00;101524.06;5095718;28;20052;-80
2022/01/24 08:08:27;;;;;;;60.80;28.05;;;;;;;1.50;100.00;101532.25;5094813;28;20043;-79
2022/01/24 08:11:12;;;;;;;73.15;32.47;;;;;;;1.37;100.00;101524.84;5094848;28;20032;-79
2022/01/24 08:13:56;;;;;;;68.43;29.48;;;;;;;1.37;100.00;101546.38;5095353;28;20043;-79
2022/01/24 08:16:41;;;;;;;51.55;24.42;;;;;;;1.36;100.00;101534.25;5094945;28;20060;-79
2022/01/24 08:19:26;;;;;;;46.05;22.45;;;;;;;1.40;100.00;101540.44;5080608;28;20119;-79
2022/01/24 08:22:12;;;;;;;49.88;23.08;;;;;;;1.15;100.00;101498.16;5095490;28;20032;-79
2022/01/24 08:24:57;;;;;;;41.58;21.80;;;;;;;1.46;100.00;101544.94;5094650;28;20040;-79
2022/01/24 08:27:42;;;;;;;45.53;23.77;;;;;;;1.41;100.00;101544.78;5080327;28;20036;-79
2022/01/24 08:30:28;;;;;;;47.67;24.23;;;;;;;1.48;100.00;101540.75;5095222;28;20046;-79
2022/01/24 08:33:13;;;;;;;44.75;22.48;;;;;;;1.52;100.00;101548.66;5094322;28;20050;-79
2022/01/24 08:35:57;;;;;;;48.35;24.30;;;;;;;1.60;100.00;101546.41;5079890;28;20044;-79
2022/01/24 08:38:46;;;;;;;45.67;23.83;;;;;;;1.76;100.00;101547.88;5083271;28;20078;-79
2022/01/24 08:41:41;;;;;;;47.30;25.17;;;;;;;1.88;100.00;101553.47;5083776;28;20076;-79
2022/01/24 08:45:42;;;;;;;50.30;25.13;;;;;;;1.97;100.00;101537.44;5098818;28;20131;-79
2022/01/24 08:47:36;;;;;;;54.30;24.85;;;;;;;2.11;100.00;101544.00;5099087;28;20036;-79
2022/01/24 08:50:25;;;;;;;47.70;22.48;;;;;;;2.15;100.00;101535.56;5099319;28;20111;-79
2022/01/24 08:53:11;;;;;;;43.42;21.58;;;;;;;2.31;100.00;101550.78;5099568;28;20044;-79
2022/01/24 08:55:55;;;;;;;38.03;21.08;;;;;;;2.48;100.00;101547.94;5100473;28;20040;-79
2022/01/24 08:58:39;;;;;;;45.72;24.33;;;;;;;2.52;100.00;101536.84;5084961;28;20044;-79
2022/01/24 09:01:23;;;;;;;44.42;21.88;;;;;;;2.67;100.00;101542.56;5099882;28;20166;-79
2022/01/24 09:04:08;;;;;;;49.63;20.75;;;;;;;2.74;100.00;101535.91;5084467;28;20134;-79
2022/01/24 09:06:52;;;;;;;44.60;21.23;;;;;;;2.89;100.00;101544.16;5084529;28;20071;-79
2022/01/24 09:09:38;;;;;;;42.53;21.20;;;;;;;2.87;100.00;101538.06;5098540;28;20048;-79
2022/01/24 09:12:22;;;;;;;43.17;20.63;;;;;;;3.02;100.00;101524.75;5098908;28;20042;-80
2022/01/24 09:15:07;;;;;;;42.55;21.85;;;;;;;3.08;100.00;101524.06;5098592;28;20047;-79
2022/01/24 09:17:51;;;;;;;50.88;22.58;;;;;;;3.12;100.00;101529.41;5099135;28;20100;-79
2022/01/24 09:20:38;;;;;;;43.40;21.88;;;;;;;3.19;100.00;101536.53;5084003;28;20040;-79
2022/01/24 09:23:23;;;;;;;46.67;22.30;;;;;;;3.22;100.00;101534.06;5098844;28;20044;-79
2022/01/24 09:26:08;;;;;;;38.72;19.83;;;;;;;3.39;100.00;101542.38;5099208;28;20044;-79
2022/01/24 09:28:52;;;;;;;42.47;20.60;;;;;;;3.38;100.00;101534.53;5084208;28;20411;-80
2022/01/24 09:31:36;;;;;;;42.63;20.75;;;;;;;3.34;100.00;101524.91;5097818;28;20044;-80
2022/01/24 09:34:20;;;;;;;45.17;20.50;;;;;;;3.40;100.00;101541.53;5098046;28;20090;-80
2022/01/24 09:37:05;;;;;;;42.45;20.20;;;;;;;3.50;100.00;101529.72;5097787;28;20044;-79
2022/01/24 09:39:49;;;;;;;43.72;21.50;;;;;;;3.49;100.00;101533.16;5099032;28;20039;-80
2022/01/24 09:42:34;;;;;;;45.60;21.30;;;;;;;3.46;100.00;101530.47;5097934;28;20063;-80
2022/01/24 09:45:19;;;;;;;45.63;21.85;;;;;;;3.56;100.00;101523.88;5097664;28;20067;-80
2022/01/24 09:48:04;;;;;;;47.65;22.15;;;;;;;3.46;100.00;101526.16;5097611;28;20040;-79
2022/01/24 09:50:52;;;;;;;79.95;42.78;;;;;;;3.46;100.00;101513.22;5101324;28;20040;-80
2022/01/24 09:53:37;;;;;;;127.97;83.03;;;;;;;3.61;100.00;101528.38;5116484;28;20031;-79
2022/01/24 09:56:22;;;;;;;105.38;72.53;;;;;;;3.50;100.00;101516.78;5116621;28;20039;-79
2022/01/24 09:59:06;;;;;;;126.65;80.22;;;;;;;3.63;100.00;101510.25;5116417;28;20052;-79
2022/01/24 10:01:51;;;;;;;59.33;36.17;;;;;;;3.70;100.00;101527.75;5115757;28;20039;-80
2022/01/24 10:04:35;;;;;;;52.28;29.17;;;;;;;3.57;100.00;101518.72;5115822;28;20153;-80
2022/01/24 10:07:19;;;;;;;54.47;28.65;;;;;;;3.65;100.00;101525.03;5115946;28;20415;-80
2022/01/24 10:10:04;;;;;;;52.63;29.33;;;;;;;3.88;100.00;101527.44;5116053;28;20043;-80
2022/01/24 10:18:36;;;;;;;51.95;25.95;;;;;;;4.15;100.00;101528.22;5117880;28;20127;-80
2022/01/24 10:21:20;;;;;;;77.38;33.28;;;;;;;4.15;100.00;101527.34;5117975;28;20449;-81
2022/01/24 10:24:05;;;;;;;157.25;69.47;;;;;;;4.24;100.00;101518.94;5103359;28;20039;-80
2022/01/24 10:27:06;;;;;;;157.55;70.25;;;;;;;4.29;100.00;101517.34;5117425;28;20039;-81
2022/01/24 10:29:55;;;;;;;227.50;101.25;;;;;;;4.39;100.00;101517.66;5117084;28;20039;-80
2022/01/24 10:32:41;;;;;;;282.08;127.30;;;;;;;4.23;100.00;101525.84;5117033;28;20439;-80
2022/01/24 10:35:44;;;;;;;238.98;105.43;;;;;;;4.11;100.00;101513.41;5117380;28;20040;-80
2022/01/24 10:38:41;;;;;;;199.40;92.82;;;;;;;4.01;100.00;101518.28;5100765;28;20032;-80
2022/01/24 10:41:39;;;;;;;202.18;95.30;;;;;;;4.01;100.00;101521.75;5115031;28;20039;-80
2022/01/24 10:44:32;;;;;;;171.75;77.03;;;;;;;4.06;100.00;101507.19;5115000;28;20047;-81
2022/01/24 10:47:23;;;;;;;139.18;59.50;;;;;;;4.13;100.00;101509.16;5114819;28;20040;-81
2022/01/24 10:50:09;;;;;;;122.90;53.53;;;;;;;4.31;100.00;101523.47;5100612;28;20051;-81
2022/01/24 10:52:55;;;;;;;80.88;38.92;;;;;;;4.37;100.00;101524.50;5115848;28;20043;-81
2022/01/24 10:55:42;;;;;;;95.45;43.85;;;;;;;4.35;100.00;101509.72;5117176;28;20368;-80
2022/01/24 10:58:34;;;;;;;67.50;31.60;;;;;;;4.48;100.00;101508.34;5116214;28;20048;-80
2022/01/24 11:01:25;;;;;;;66.47;32.37;;;;;;;4.29;100.00;101496.59;5117324;28;20353;-81
2022/01/24 11:04:13;;;;;;;61.75;32.42;;;;;;;4.52;100.00;101500.69;5116520;28;20445;-81
2022/01/24 11:07:01;;;;;;;59.35;31.00;;;;;;;4.55;100.00;101487.81;5102701;28;20062;-80
2022/01/24 11:09:46;;;;;;;49.22;28.27;;;;;;;4.64;100.00;101485.44;5117724;28;20040;-80
2022/01/24 11:12:30;;;;;;;55.05;30.17;;;;;;;4.77;100.00;101496.13;5117116;28;20048;-80
2022/01/24 11:15:15;;;;;;;45.70;25.23;;;;;;;4.88;100.00;101486.91;5116990;28;20036;-81
2022/01/24 11:18:01;;;;;;;42.45;23.13;;;;;;;4.88;100.00;101485.19;5116338;28;20377;-81
2022/01/24 11:20:46;;;;;;;48.13;25.35;;;;;;;4.73;100.00;101481.31;5116762;28;20063;-80
2022/01/24 11:23:31;;;;;;;48.92;23.13;;;;;;;4.67;100.00;101493.28;5101925;28;20040;-81
2022/01/24 11:26:16;;;;;;;40.88;23.17;;;;;;;4.36;100.00;101476.06;5116191;28;20067;-81
2022/01/24 11:29:01;;;;;;;43.05;22.33;;;;;;;4.41;99.14;101478.75;5116198;28;20378;-80
2022/01/24 11:32:04;;;;;;;46.97;22.58;;;;;;;4.41;100.00;101481.34;5116879;28;20051;-81
2022/01/24 11:34:51;;;;;;;41.60;21.73;;;;;;;4.37;100.00;101466.56;5116319;28;20101;-81
2022/01/24 11:37:39;;;;;;;45.10;21.35;;;;;;;4.37;99.37;101472.63;5116033;28;20039;-80
2022/01/24 11:40:25;;;;;;;45.97;23.17;;;;;;;4.27;98.86;101467.16;5116740;28;20063;-80
2022/01/24 11:43:36;;;;;;;40.25;22.52;;;;;;;4.36;100.00;101467.41;5116824;28;20130;-81
2022/01/24 11:46:37;;;;;;;36.50;20.67;;;;;;;4.48;100.00;101457.31;5115922;28;20050;-81
2022/01/24 11:49:27;;;;;;;41.47;20.63;;;;;;;4.38;99.62;101461.41;5116169;28;20036;-81
2022/01/24 11:52:17;;;;;;;43.70;23.60;;;;;;;4.43;100.00;101461.53;5115808;28;20075;-80
2022/01/24 11:55:21;;;;;;;52.58;26.67;;;;;;;4.44;100.00;101451.19;5115689;28;20048;-80
2022/01/24 11:58:07;;;;;;;59.20;26.42;;;;;;;4.51;99.11;101454.81;5116128;28;20055;-81
2022/01/24 12:00:54;;;;;;;44.75;24.00;;;;;;;4.48;99.22;101454.72;5116355;28;20043;-80
2022/01/24 12:03:51;;;;;;;57.72;27.88;;;;;;;4.34;99.47;101445.72;5101357;28;20124;-80
2022/01/24 12:07:13;;;;;;;53.15;27.15;;;;;;;4.28;100.00;101453.34;5116650;28;20035;-80
2022/01/24 12:10:36;;;;;;;49.70;23.33;;;;;;;4.37;100.00;101448.41;5116871;28;20040;-80
2022/01/24 12:13:31;;;;;;;54.90;27.42;;;;;;;4.25;100.00;101446.34;5078722;28;20048;-80
2022/01/24 12:16:17;;;;;;;54.55;25.80;;;;;;;4.15;100.00;101436.56;5120585;28;20047;-80
2022/01/24 12:19:03;;;;;;;47.63;26.95;;;;;;;3.99;100.00;101436.13;5120041;28;20071;-80
2022/01/24 12:21:48;;;;;;;52.33;28.00;;;;;;;3.97;100.00;101434.38;5119714;28;20095;-80
2022/01/24 12:24:44;;;;;;;58.90;27.42;;;;;;;3.95;100.00;101439.50;5120207;28;20043;-80
2022/01/24 12:27:29;;;;;;;48.42;26.70;;;;;;;3.93;100.00;101445.47;5120338;28;20043;-80
2022/01/24 12:30:17;;;;;;;50.55;26.67;;;;;;;4.07;100.00;101444.16;5120154;28;20539;-80
2022/01/24 12:33:03;;;;;;;52.38;27.48;;;;;;;4.14;100.00;101427.91;5119724;28;20341;-80
2022/01/24 12:35:47;;;;;;;49.90;26.52;;;;;;;4.28;100.00;101427.41;5119431;28;20352;-80
2022/01/24 12:38:44;;;;;;;47.60;25.80;;;;;;;4.29;100.00;101423.94;5120632;28;20437;-80
2022/01/24 12:41:38;;;;;;;46.70;26.23;;;;;;;4.33;100.00;101418.91;5119910;28;20040;-80
2022/01/24 12:47:27;;;;;;;54.78;27.20;;;;;;;4.22;100.00;101420.31;5120304;28;20043;-80
2022/01/24 12:50:12;;;;;;;54.22;27.85;;;;;;;4.24;100.00;101421.25;5120152;28;20046;-80
2022/01/24 12:52:56;;;;;;;49.20;24.70;;;;;;;4.14;100.00;101407.16;5120207;28;20039;-81
2022/01/24 12:55:44;;;;;;;48.80;25.92;;;;;;;4.42;100.00;101415.69;5119043;28;20047;-81
2022/01/24 12:58:36;;;;;;;48.05;25.73;;;;;;;4.26;100.00;101405.72;5119725;28;20056;-81
2022/01/24 13:01:25;;;;;;;46.20;24.70;;;;;;;4.20;100.00;101398.69;5119306;28;20047;-81
2022/01/24 13:04:12;;;;;;;51.55;25.17;;;;;;;4.20;100.00;101396.94;5118970;28;20380;-81
2022/01/24 13:06:57;;;;;;;59.10;29.75;;;;;;;4.12;100.00;101393.25;5118883;28;20054;-81
2022/01/24 13:09:42;;;;;;;67.47;35.70;;;;;;;4.11;100.00;101395.84;5104706;28;20118;-81
2022/01/24 13:12:26;;;;;;;71.63;36.13;;;;;;;4.06;100.00;101393.09;5119766;28;20097;-81
2022/01/24 13:20:23;;;;;;;84.43;44.70;;;;;;;4.07;100.00;101397.47;5104629;28;20046;-82
2022/01/24 13:21:31;;;;;;;71.53;40.05;;;;;;;4.07;100.00;101402.66;5117684;28;20047;-82
2022/01/24 13:24:17;;;;;;;77.20;41.60;;;;;;;4.12;100.00;101398.44;5104020;28;20043;-83
2022/01/24 13:27:05;;;;;;;57.33;31.38;;;;;;;4.25;100.00;101398.78;5119466;28;20122;-81
2022/01/24 13:29:50;;;;;;;49.30;27.40;;;;;;;4.29;100.00;101392.81;5117788;28;20118;-80
2022/01/24 13:32:47;;;;;;;55.35;26.92;;;;;;;4.10;100.00;101396.69;5102131;28;20051;-81
2022/01/24 13:35:36;;;;;;;48.40;26.80;;;;;;;3.88;100.00;101395.22;5102138;28;20054;-81
2022/01/24 13:38:28;;;;;;;54.58;26.50;;;;;;;4.01;100.00;101396.44;5102119;28;20486;-81
2022/01/24 13:41:15;;;;;;;57.67;29.38;;;;;;;3.97;100.00;101393.75;5116364;28;20040;-82
2022/01/24 13:44:02;;;;;;;71.63;35.25;;;;;;;3.90;100.00;101381.47;5116405;28;20047;-81
2022/01/24 13:46:47;;;;;;;161.07;70.60;;;;;;;3.86;100.00;101378.72;5117357;28;20418;-81
2022/01/24 13:49:31;;;;;;;180.00;84.60;;;;;;;3.80;100.00;101366.47;5116742;28;20043;-81
2022/01/24 13:52:18;;;;;;;158.07;73.53;;;;;;;3.79;100.00;101385.47;5117477;28;20043;-81
2022/01/24 13:55:16;;;;;;;99.63;53.30;;;;;;;3.62;100.00;101372.03;5118206;28;20043;-81
2022/01/24 13:58:01;;;;;;;61.42;35.67;;;;;;;3.60;100.00;101372.84;5118308;28;20357;-81
2022/01/24 14:00:57;;;;;;;50.50;28.63;;;;;;;3.42;100.00;101355.94;5118551;28;20042;-81
2022/01/24 14:03:41;;;;;;;56.83;27.52;;;;;;;3.56;100.00;101377.06;5117742;28;20075;-81
2022/01/24 14:06:31;;;;;;;51.17;26.67;;;;;;;3.60;100.00;101380.59;5117810;28;20031;-81
2022/01/24 14:09:16;;;;;;;55.85;27.80;;;;;;;3.61;100.00;101366.84;5118250;28;20040;-81
2022/01/24 14:12:01;;;;;;;54.33;28.85;;;;;;;3.69;100.00;101378.28;5117638;28;20114;-81
2022/01/24 14:14:57;;;;;;;59.22;30.33;;;;;;;3.71;100.00;101376.63;5118074;28;20039;-82